createdAt,value
2022-12-07T00:00:00.449Z,4
2022-12-07T00:05:00.120Z,4
2022-12-07T00:10:00.444Z,4
2022-12-07T00:15:00.092Z,4
2022-12-07T00:20:00.452Z,4
2022-12-07T00:25:00.090Z,4
2022-12-07T00:30:00.537Z,3.5
2022-12-07T00:35:00.092Z,3.5
2022-12-07T00:40:00.413Z,3.5
2022-12-07T00:45:00.117Z,3.5
2022-12-07T00:50:00.377Z,3.5
2022-12-07T00:55:00.083Z,3.5
2022-12-07T01:00:00.564Z,3
2022-12-07T01:05:00.114Z,3
2022-12-07T01:10:00.408Z,3
2022-12-07T01:15:00.078Z,2.5
2022-12-07T01:20:00.583Z,2.5
2022-12-07T01:25:00.099Z,2.5
2022-12-07T01:30:00.403Z,2
2022-12-07T01:35:00.115Z,2
2022-12-07T01:40:00.322Z,2
2022-12-07T01:45:00.080Z,2
2022-12-07T01:50:00.390Z,2
2022-12-07T01:55:00.094Z,1.5
2022-12-07T02:00:00.463Z,1.5
2022-12-07T02:05:00.103Z,1.5
2022-12-07T02:10:00.362Z,1.5
2022-12-07T02:15:00.098Z,1.5
2022-12-07T02:20:00.283Z,1.5
2022-12-07T02:25:00.095Z,1.5
2022-12-07T02:30:00.550Z,1.5
2022-12-07T02:35:00.092Z,1.5
2022-12-07T02:40:00.516Z,1.5
2022-12-07T02:45:00.131Z,1.5
2022-12-07T02:50:00.627Z,1.5
2022-12-07T02:55:00.099Z,1.5
2022-12-07T03:00:00.460Z,1.5
2022-12-07T03:05:00.097Z,1.5
2022-12-07T03:10:00.416Z,1.5
2022-12-07T03:15:00.119Z,1.5
2022-12-07T03:20:00.532Z,1.5
2022-12-07T03:25:00.119Z,1.5
2022-12-07T03:30:00.552Z,1.5
2022-12-07T03:35:00.101Z,1.5
2022-12-07T03:40:00.510Z,2
2022-12-07T03:45:00.113Z,2
2022-12-07T03:50:00.583Z,2
2022-12-07T03:55:00.099Z,2
2022-12-07T04:00:00.606Z,2.5
2022-12-07T04:05:00.093Z,2.5
2022-12-07T04:10:00.608Z,2.5
2022-12-07T04:15:00.084Z,2.5
2022-12-07T04:20:00.586Z,3
2022-12-07T04:25:00.161Z,3
2022-12-07T04:30:00.505Z,3
2022-12-07T04:35:00.124Z,3
2022-12-07T04:40:00.382Z,3
2022-12-07T04:45:00.108Z,3
2022-12-07T04:50:00.531Z,3
2022-12-07T04:55:00.135Z,3
2022-12-07T05:00:00.567Z,3
2022-12-07T05:05:00.108Z,3
2022-12-07T05:10:00.652Z,3
2022-12-07T05:15:00.110Z,3
2022-12-07T05:20:00.655Z,3
2022-12-07T05:25:00.089Z,3
2022-12-07T05:30:00.359Z,3
2022-12-07T05:35:00.098Z,3
2022-12-07T05:40:00.525Z,3
2022-12-07T05:45:00.083Z,3
2022-12-07T05:50:00.496Z,3
2022-12-07T05:55:00.086Z,3
2022-12-07T06:00:00.719Z,3
2022-12-07T06:05:00.089Z,3.5
2022-12-07T06:10:00.567Z,3.5
2022-12-07T06:15:00.102Z,3.5
2022-12-07T06:20:00.551Z,3.5
2022-12-07T06:25:01.937Z,3.5
2022-12-07T06:30:00.459Z,3.5
2022-12-07T06:35:00.084Z,3.5
2022-12-07T06:40:00.516Z,3
2022-12-07T06:45:00.095Z,3
2022-12-07T06:50:00.460Z,3
2022-12-07T06:55:00.101Z,3
2022-12-07T07:00:00.724Z,3
2022-12-07T07:05:00.088Z,3
2022-12-07T07:10:00.501Z,3.5
2022-12-07T07:15:00.107Z,3.5
2022-12-07T07:20:00.509Z,3.5
2022-12-07T07:25:00.099Z,3.5
2022-12-07T07:30:00.562Z,3.5
2022-12-07T07:35:00.095Z,3.5
2022-12-07T07:40:00.405Z,4
2022-12-07T07:45:00.095Z,4
2022-12-07T07:50:00.210Z,4
2022-12-07T07:55:00.111Z,4
2022-12-07T08:00:00.403Z,4
2022-12-07T08:05:00.118Z,4
2022-12-07T08:10:00.484Z,4
2022-12-07T08:15:00.118Z,4
2022-12-07T08:20:00.501Z,4
2022-12-07T08:25:00.129Z,4
2022-12-07T08:30:00.543Z,4
2022-12-07T08:35:00.116Z,4.5
2022-12-07T08:40:00.355Z,4.5
2022-12-07T08:45:00.098Z,5
2022-12-07T08:50:00.282Z,5.5
2022-12-07T08:55:00.133Z,5.5
2022-12-07T09:00:00.402Z,5.5
2022-12-07T09:05:00.090Z,5
2022-12-07T09:10:00.468Z,5
2022-12-07T09:15:00.185Z,5
2022-12-07T09:20:00.481Z,5
2022-12-07T09:25:00.100Z,5.5
2022-12-07T09:30:00.372Z,5.5
2022-12-07T09:35:00.092Z,5.5
2022-12-07T09:40:00.106Z,5.5
2022-12-07T09:45:00.172Z,5.5
2022-12-07T09:50:00.406Z,5.5
2022-12-07T09:55:00.354Z,5
2022-12-07T10:00:00.187Z,5
2022-12-07T10:05:00.554Z,5
2022-12-07T10:10:00.117Z,5
2022-12-07T10:15:08.428Z,5
2022-12-07T10:20:00.070Z,5
2022-12-07T10:25:00.222Z,5
2022-12-07T10:30:00.131Z,5.5
2022-12-07T10:35:00.111Z,5.5
2022-12-07T10:40:00.112Z,6
2022-12-07T10:45:00.246Z,6
2022-12-07T10:50:00.141Z,6
2022-12-07T10:55:00.330Z,6
2022-12-07T11:00:00.122Z,6
2022-12-07T11:05:00.355Z,6
2022-12-07T11:10:08.245Z,6
2022-12-07T11:15:00.086Z,6
2022-12-07T11:20:00.262Z,6
2022-12-07T11:25:00.179Z,6
2022-12-07T11:30:00.409Z,6
2022-12-07T11:35:00.090Z,5.5
2022-12-07T11:40:00.361Z,5
2022-12-07T11:45:00.089Z,5
2022-12-07T11:50:00.094Z,5
2022-12-07T11:55:00.094Z,5
2022-12-07T12:00:00.442Z,5
2022-12-07T12:05:00.075Z,5.5
2022-12-07T12:10:00.116Z,5.5
2022-12-07T12:15:00.317Z,5.5
2022-12-07T12:20:00.102Z,5.5
2022-12-07T12:25:00.492Z,5.5
2022-12-07T12:30:00.143Z,6
2022-12-07T12:35:00.086Z,6
2022-12-07T12:40:00.123Z,6
2022-12-07T12:45:00.295Z,6
2022-12-07T12:50:00.139Z,6
2022-12-07T12:55:00.413Z,6
2022-12-07T13:00:00.102Z,6
2022-12-07T13:05:00.474Z,6
2022-12-07T13:10:00.210Z,6
2022-12-07T13:15:00.566Z,6
2022-12-07T13:20:00.125Z,6
2022-12-07T13:25:00.390Z,6
2022-12-07T13:30:00.297Z,6
2022-12-07T13:35:00.447Z,6
2022-12-07T13:40:00.094Z,6
2022-12-07T13:45:00.409Z,6
2022-12-07T13:50:00.119Z,6
2022-12-07T13:55:00.422Z,6
2022-12-07T14:00:00.188Z,6
2022-12-07T14:05:00.331Z,6
2022-12-07T14:10:00.240Z,6
2022-12-07T14:15:00.572Z,6
2022-12-07T14:20:00.094Z,5.5
2022-12-07T14:25:00.432Z,5.5
2022-12-07T14:30:00.132Z,5.5
2022-12-07T14:35:00.473Z,5.5
2022-12-07T14:40:00.087Z,5
2022-12-07T14:45:00.244Z,5
2022-12-07T14:50:01.662Z,5
2022-12-07T14:55:00.401Z,5
2022-12-07T15:00:00.122Z,5
2022-12-07T15:05:00.315Z,5
2022-12-07T15:10:00.160Z,5
2022-12-07T15:15:00.370Z,4.5
2022-12-07T15:20:00.088Z,4.5
2022-12-07T15:25:00.345Z,4.5
2022-12-07T15:30:00.157Z,4.5
2022-12-07T15:35:00.379Z,4.5
2022-12-07T15:40:04.216Z,4.5
2022-12-07T15:45:00.374Z,4.5
2022-12-07T15:50:00.139Z,4.5
2022-12-07T15:55:00.240Z,4.5
2022-12-07T16:00:00.101Z,4.5
2022-12-07T16:05:00.324Z,4.5
2022-12-07T16:10:00.124Z,5
2022-12-07T16:15:00.410Z,5
2022-12-07T16:20:00.129Z,5
2022-12-07T16:25:00.250Z,4.5
2022-12-07T16:30:00.170Z,4.5
2022-12-07T16:35:00.344Z,4.5
2022-12-07T16:40:00.107Z,4
2022-12-07T16:45:00.470Z,4
2022-12-07T16:50:00.105Z,4
2022-12-07T16:55:00.304Z,3.5
2022-12-07T17:00:00.140Z,3.5
2022-12-07T17:05:00.386Z,3.5
2022-12-07T17:10:00.145Z,3.5
2022-12-07T17:15:00.211Z,4
2022-12-07T17:20:00.096Z,4
2022-12-07T17:25:00.329Z,4
2022-12-07T17:30:00.140Z,4
2022-12-07T17:35:00.270Z,4
2022-12-07T17:40:00.189Z,4
2022-12-07T17:45:00.207Z,4
2022-12-07T17:50:05.029Z,4
2022-12-07T17:55:00.454Z,4
2022-12-07T18:00:00.100Z,4
2022-12-07T18:05:00.369Z,4.5
2022-12-07T18:10:00.129Z,4.5
2022-12-07T18:15:00.498Z,4
2022-12-07T18:20:00.096Z,4
2022-12-07T18:25:00.285Z,4
2022-12-07T18:30:00.140Z,4
2022-12-07T18:35:00.237Z,4
2022-12-07T18:40:00.091Z,4
2022-12-07T18:45:00.236Z,4
2022-12-07T18:50:00.103Z,4
2022-12-07T18:55:00.300Z,4
2022-12-07T19:00:00.100Z,4
2022-12-07T19:05:00.278Z,4
2022-12-07T19:10:00.130Z,4
2022-12-07T19:15:00.237Z,4
2022-12-07T19:20:00.088Z,4
2022-12-07T19:25:00.375Z,4
2022-12-07T19:30:00.142Z,4
2022-12-07T19:35:00.366Z,4
2022-12-07T19:40:00.094Z,4
2022-12-07T19:45:00.358Z,4
2022-12-07T19:50:00.127Z,4
2022-12-07T19:55:00.363Z,4
2022-12-07T20:00:00.098Z,4
2022-12-07T20:05:04.371Z,4
2022-12-07T20:10:00.133Z,4
2022-12-07T20:15:00.186Z,4
2022-12-07T20:20:00.122Z,4
2022-12-07T20:25:00.161Z,4
2022-12-07T20:30:00.139Z,4
2022-12-07T20:35:00.275Z,4
2022-12-07T20:40:00.089Z,4
2022-12-07T20:45:03.209Z,4
2022-12-07T20:50:00.133Z,4
2022-12-07T20:55:00.302Z,4
2022-12-07T21:00:00.094Z,4
2022-12-07T21:05:00.290Z,4
2022-12-07T21:10:00.122Z,4
2022-12-07T21:15:00.306Z,4
2022-12-07T21:20:00.098Z,4
2022-12-07T21:25:00.160Z,4
2022-12-07T21:30:00.128Z,4
2022-12-07T21:35:00.182Z,4
2022-12-07T21:40:00.093Z,4
2022-12-07T21:45:00.224Z,4
2022-12-07T21:50:00.111Z,4
2022-12-07T21:55:00.266Z,4
2022-12-07T22:00:00.104Z,4
2022-12-07T22:05:00.212Z,4
2022-12-07T22:10:00.116Z,4
2022-12-07T22:15:00.242Z,4
2022-12-07T22:20:00.093Z,4
2022-12-07T22:25:00.234Z,4
2022-12-07T22:30:00.126Z,4
2022-12-07T22:35:00.121Z,4
2022-12-07T22:40:00.090Z,4.5
2022-12-07T22:45:00.220Z,4.5
2022-12-07T22:50:00.112Z,4.5
2022-12-07T22:55:00.205Z,4.5
2022-12-07T23:00:00.155Z,4.5
2022-12-07T23:05:00.240Z,4.5
2022-12-07T23:10:00.125Z,4.5
2022-12-07T23:15:00.294Z,4
2022-12-07T23:20:00.103Z,4.5
2022-12-07T23:25:00.142Z,4.5
2022-12-07T23:30:00.102Z,4.5
2022-12-07T23:35:00.252Z,4
2022-12-07T23:40:00.122Z,4
2022-12-07T23:45:00.291Z,4
2022-12-07T23:50:00.104Z,4
2022-12-07T23:55:00.258Z,4
